Nearby METAR Reports

 

LELL - Sabadell, Spain
Distance from station: E 18km
Mise à jour: 22/01/2022 12:00
clair
clair
 Wind from ONO
Vent: ONO 15 km/h
Température: 8°C
Wind Chill: 5°C
Point de rosée: 0°C
Humidité: 57%
Baromètre: 1030 hPa
Résumé: clair
Visibility: greater than 10 km
2022/01/22 11:00 LELL 221100Z 30008KT 270V330 CAVOK 08/M00 Q1030
LEBL - Barcelona Airpor, Spain
Distance from station: SSE 33km
Mise à jour: 22/01/2022 12:00
Few Clouds
Few Clouds
 Wind from NO
Vent: NO 17 km/h, Rafale: 35 km/h
Température: 8°C
Wind Chill: 5°C
Point de rosée: -1°C
Humidité: 53%
Baromètre: 1031 hPa
Clouds: Few Clouds
Visibility: 10 km
Cloud details: Few Clouds 762 m
2022/01/22 11:00 LEBL 221100Z 32009G19KT 280V350 9999 FEW025 08/M01 Q1031 NOSIG
LERS - Reus (civ/Mil), Spain
Distance from station: SO 75km
Mise à jour: 22/01/2022 12:00
Few Clouds
Few Clouds
 Wind from varies
Vent: varies 2 km/h
Température: 9°C
Point de rosée: -2°C
Humidité: 46%
Baromètre: 1031 hPa
Clouds: Few Clouds
Visibility: 10 km
Cloud details: Few Clouds 1097 m
2022/01/22 11:00 LERS 221100Z VRB01KT 9999 FEW036 09/M02 Q1031
 
LEGE - Gerona/Costa Bra, Spain
Distance from station: ENE 83km
Mise à jour: 22/01/2022 12:00
clair
clair
 Wind from calm
Vent: calme
Température: 9°C
Point de rosée: 1°C
Humidité: 58%
Baromètre: 1030 hPa
Résumé: clair
Visibility: greater than 10 km
2022/01/22 11:00 LEGE 221100Z 00000KT CAVOK 09/01 Q1030
LFMP - Perpignan/Rivesa, France
Distance from station: NNE 155km
Mise à jour: 22/01/2022 12:00
clair
clair
 Wind from NNO
Vent: NNO 19 km/h
Température: 11°C
Point de rosée: -5°C
Humidité: 32%
Baromètre: 1030 hPa
Résumé: clair
Visibility: greater than 10 km
2022/01/22 11:00 LFMP 221100Z AUTO 33010KT CAVOK 11/M05 Q1030 NOSIG
LFMK - Carcassonne/Salv, France
Distance from station: N 191km
Mise à jour: 22/01/2022 12:00
clair
clair
 Wind from O
Vent: O 22 km/h
Température: 6°C
Wind Chill: 2°C
Point de rosée: -1°C
Humidité: 61%
Baromètre: 1032 hPa
Résumé: clair
Visibility: greater than 10 km
2022/01/22 11:00 LFMK 221100Z AUTO 27012KT CAVOK 06/M01 Q1032 NOSIG
 
LEHC - Huesca-Pirineos, Spain
Distance from station: ONO 193km
Mise à jour: 22/01/2022 12:00
Few Clouds
Few Clouds
 Wind from E
Vent: E 7 km/h
Température: 0°C
Wind Chill: -3°C
Point de rosée: -2°C
Humidité: 87%
Baromètre: 1030 hPa
Clouds: Few Clouds
Visibility: 8 km
Cloud details: Few Clouds 91 m
2022/01/22 11:00 LEHC 221100Z 09004KT 060V120 8000 FEW003 00/M02 Q1030
LFMU - Beziers/Vias, France
Distance from station: NNE 232km
Mise à jour: 22/01/2022 12:00
clair
clair
 Wind from O
Vent: O 19 km/h
Température: 8°C
Wind Chill: 4°C
Point de rosée: -2°C
Humidité: 50%
Baromètre: 1030 hPa
Résumé: clair
Visibility: greater than 10 km
2022/01/22 11:00 LFMU 221100Z AUTO 28010KT CAVOK 08/M02 Q1030 NOSIG
LEPA - Palma De Mallorc, Spain
Distance from station: SSE 233km
Mise à jour: 22/01/2022 12:00
Few Clouds
Few Clouds
 Wind from ENE
Vent: ENE 15 km/h
Température: 12°C
Point de rosée: 4°C
Humidité: 58%
Baromètre: 1031 hPa
Clouds: Few Clouds
Visibility: 10 km
Cloud details: Few Clouds 914 m
2022/01/22 11:00 LEPA 221100Z 07008KT 040V100 9999 FEW030 12/04 Q1031 NOSIG
 
LFBO - Toulouse/Blagnac, France
Distance from station: N 236km
Mise à jour: 22/01/2022 12:00
clair
clair
 Wind from varies
Vent: varies 4 km/h
Température: 3°C
Point de rosée: -2°C
Humidité: 70%
Baromètre: 1033 hPa
Résumé: clair
Visibility: greater than 10 km
2022/01/22 11:00 LFBO 221100Z AUTO VRB02KT CAVOK 03/M02 Q1033 NOSIG
LFBT - Tarbes/Ossun, France
Distance from station: NO 239km
Mise à jour: 22/01/2022 12:00
clair
clair
 Wind from N
Vent: N 7 km/h
Température: 4°C
Wind Chill: 2°C
Point de rosée: -2°C
Humidité: 65%
Baromètre: 1032 hPa
Résumé: clair
Visibility: greater than 10 km
2022/01/22 11:00 LFBT 221100Z AUTO 36004KT 310V040 CAVOK 04/M02 Q1032 NOSIG
LEZG - Zaragoza (mil/Ci, Spain
Distance from station: O 242km
Mise à jour: 22/01/2022 12:00
clair
clair
 Wind from NO
Vent: NO 11 km/h
Température: 5°C
Wind Chill: 2°C
Point de rosée: -3°C
Humidité: 57%
Baromètre: 1032 hPa
Résumé: clair
Visibility: greater than 10 km
2022/01/22 11:00 LEZG 221100Z 32006KT 290V350 CAVOK 05/M03 Q1032